createdAt,value
2023-05-23T00:01:21.379Z,9.60
2023-05-23T00:03:50.286Z,8.32
2023-05-23T00:06:22.663Z,9.30
2023-05-23T00:08:51.444Z,6.80
2023-05-23T00:11:20.498Z,11.85
2023-05-23T00:13:48.698Z,8.98
2023-05-23T00:16:17.228Z,9.48
2023-05-23T00:18:45.690Z,9.23
2023-05-23T00:21:14.566Z,7.82
2023-05-23T00:26:38.975Z,9.50
2023-05-23T00:29:08.547Z,10.60
2023-05-23T00:31:36.664Z,11.38
2023-05-23T00:34:04.803Z,10.40
2023-05-23T00:36:36.867Z,21.85
2023-05-23T00:39:06.998Z,10.13
2023-05-23T00:41:36.387Z,8.88
2023-05-23T00:44:05.930Z,10.02
2023-05-23T00:46:34.292Z,7.18
2023-05-23T00:49:04.719Z,9.63
2023-05-23T00:51:32.965Z,10.00
2023-05-23T00:54:02.103Z,11.10
2023-05-23T00:56:32.093Z,7.38
2023-05-23T00:59:01.695Z,8.68
2023-05-23T01:01:29.892Z,8.90
2023-05-23T01:04:03.022Z,14.43
2023-05-23T01:06:33.306Z,11.18
2023-05-23T01:09:03.513Z,8.35
2023-05-23T01:11:39.351Z,8.48
2023-05-23T01:14:13.081Z,9.98
2023-05-23T01:16:48.909Z,10.48
2023-05-23T01:19:42.045Z,9.18
2023-05-23T01:22:18.297Z,8.48
2023-05-23T01:24:55.744Z,11.82
2023-05-23T01:27:40.968Z,10.35
2023-05-23T01:30:12.986Z,8.82
2023-05-23T01:32:41.977Z,9.53
2023-05-23T01:35:11.829Z,9.52
2023-05-23T01:37:40.092Z,11.75
2023-05-23T01:40:09.224Z,7.03
2023-05-23T01:42:38.112Z,13.93
2023-05-23T01:45:09.352Z,10.75
2023-05-23T01:47:39.370Z,8.90
2023-05-23T01:50:09.123Z,12.30
2023-05-23T01:52:38.076Z,8.20
2023-05-23T01:55:09.663Z,11.68
2023-05-23T01:57:39.242Z,9.70
2023-05-23T02:00:12.357Z,9.60
2023-05-23T02:02:43.635Z,9.57
2023-05-23T02:05:12.251Z,9.07
2023-05-23T02:07:40.668Z,10.68
2023-05-23T02:10:10.853Z,11.70
2023-05-23T02:12:39.621Z,11.02
2023-05-23T02:15:10.213Z,12.45
2023-05-23T02:17:41.388Z,9.38
2023-05-23T02:20:11.147Z,9.55
2023-05-23T02:22:39.992Z,10.35
2023-05-23T02:25:10.613Z,12.18
2023-05-23T02:27:40.861Z,9.57
2023-05-23T02:30:11.528Z,7.63
2023-05-23T02:32:39.722Z,9.32
2023-05-23T02:35:08.527Z,10.20
2023-05-23T02:37:36.668Z,11.02
2023-05-23T02:40:09.282Z,12.93
2023-05-23T02:42:37.971Z,13.40
2023-05-23T02:45:06.924Z,12.45
2023-05-23T02:47:37.097Z,10.23
2023-05-23T02:50:06.045Z,10.77
2023-05-23T02:52:34.220Z,10.25
2023-05-23T02:55:02.429Z,7.75
2023-05-23T02:57:35.869Z,9.23
2023-05-23T03:00:04.979Z,11.75
2023-05-23T03:02:34.224Z,10.98
2023-05-23T03:05:04.017Z,12.48
2023-05-23T03:07:33.912Z,11.35
2023-05-23T03:10:02.267Z,11.75
2023-05-23T03:12:30.512Z,11.13
2023-05-23T03:14:58.693Z,14.95
2023-05-23T03:17:29.560Z,9.93
2023-05-23T03:19:58.635Z,14.98
2023-05-23T03:22:31.142Z,20.80
2023-05-23T03:24:59.315Z,12.07
2023-05-23T03:27:28.626Z,11.75
2023-05-23T03:29:56.925Z,11.48
2023-05-23T03:32:28.193Z,9.25
2023-05-23T03:34:56.375Z,14.70
2023-05-23T03:37:24.520Z,15.65
2023-05-23T03:39:54.144Z,10.48
2023-05-23T03:42:22.752Z,8.98
2023-05-23T03:44:51.574Z,10.55
2023-05-23T03:47:20.509Z,16.50
2023-05-23T03:49:49.775Z,16.75
2023-05-23T03:52:20.555Z,10.77
2023-05-23T03:54:48.812Z,12.27
2023-05-23T03:57:21.078Z,10.30
2023-05-23T03:59:49.536Z,12.00
2023-05-23T04:02:18.033Z,12.30
2023-05-23T04:04:47.141Z,11.05
2023-05-23T04:07:16.652Z,17.15
2023-05-23T04:09:45.816Z,13.30
2023-05-23T04:12:15.481Z,13.45
2023-05-23T04:14:47.791Z,13.48
2023-05-23T04:17:16.179Z,12.55
2023-05-23T04:19:45.162Z,12.27
2023-05-23T04:22:13.583Z,13.38
2023-05-23T04:24:41.820Z,11.85
2023-05-23T04:27:11.815Z,13.35
2023-05-23T04:29:40.620Z,12.98
2023-05-23T04:32:11.401Z,14.88
2023-05-23T04:34:41.205Z,11.20
2023-05-23T04:37:09.752Z,18.50
2023-05-23T04:39:38.511Z,13.68
2023-05-23T04:42:44.772Z,15.63
2023-05-23T04:45:36.577Z,16.77
2023-05-23T04:48:17.144Z,13.00
2023-05-23T04:50:47.773Z,11.50
2023-05-23T04:53:16.133Z,15.40
2023-05-23T04:55:44.714Z,18.77
2023-05-23T04:58:16.792Z,10.73
2023-05-23T05:00:45.449Z,14.63
2023-05-23T05:03:18.622Z,11.70
2023-05-23T05:05:48.453Z,11.75
2023-05-23T05:08:19.891Z,13.13
2023-05-23T05:10:48.408Z,14.93
2023-05-23T05:13:17.593Z,12.45
2023-05-23T05:15:50.325Z,13.45
2023-05-23T05:18:20.322Z,12.35
2023-05-23T05:20:48.565Z,12.90
2023-05-23T05:23:17.427Z,13.77
2023-05-23T05:25:46.071Z,12.43
2023-05-23T05:28:14.582Z,10.43
2023-05-23T05:30:46.621Z,13.15
2023-05-23T05:33:15.849Z,15.63
2023-05-23T05:35:45.849Z,15.77
2023-05-23T05:38:14.623Z,9.68
2023-05-23T05:40:43.288Z,14.27
2023-05-23T05:43:12.168Z,12.95
2023-05-23T05:45:41.035Z,11.98
2023-05-23T05:48:09.258Z,13.18
2023-05-23T05:50:37.639Z,14.63
2023-05-23T05:53:08.627Z,13.45
2023-05-23T05:55:36.811Z,21.83
2023-05-23T05:58:05.070Z,12.98
2023-05-23T06:00:46.909Z,17.23
2023-05-23T06:03:15.785Z,14.02
2023-05-23T06:05:51.354Z,10.90
2023-05-23T06:08:21.240Z,12.73
2023-05-23T06:10:50.193Z,13.07
2023-05-23T06:13:18.375Z,16.65
2023-05-23T06:15:50.890Z,13.38
2023-05-23T06:18:19.276Z,14.30
2023-05-23T06:20:48.040Z,14.25
2023-05-23T06:23:18.651Z,14.82
2023-05-23T06:25:50.022Z,13.77
2023-05-23T06:28:18.167Z,15.07
2023-05-23T06:30:47.724Z,16.98
2023-05-23T06:33:16.180Z,12.55
2023-05-23T06:35:44.476Z,14.63
2023-05-23T06:38:12.742Z,18.15
2023-05-23T06:40:44.417Z,19.55
2023-05-23T06:43:14.087Z,14.65
2023-05-23T06:45:47.468Z,20.60
2023-05-23T06:48:15.763Z,15.50
2023-05-23T06:50:45.630Z,20.20
2023-05-23T06:53:14.144Z,16.88
2023-05-23T06:55:43.371Z,12.13
2023-05-23T06:58:16.433Z,20.20
2023-05-23T07:00:44.953Z,16.10
2023-05-23T07:03:24.154Z,18.45
2023-05-23T07:05:58.901Z,17.67
2023-05-23T07:08:27.646Z,16.50
2023-05-23T07:11:02.905Z,18.75
2023-05-23T07:13:40.090Z,17.65
2023-05-23T07:16:08.490Z,20.20
2023-05-23T07:18:42.825Z,19.65
2023-05-23T07:21:11.094Z,21.80
2023-05-23T07:23:39.321Z,17.05
2023-05-23T07:26:09.896Z,15.35
2023-05-23T07:28:52.060Z,20.40
2023-05-23T07:31:20.264Z,20.58
2023-05-23T07:33:48.836Z,13.05
2023-05-23T07:36:26.693Z,15.25
2023-05-23T07:38:56.455Z,11.57
2023-05-23T07:41:24.973Z,15.27
2023-05-23T07:43:54.628Z,17.65
2023-05-23T07:46:23.292Z,20.80
2023-05-23T07:48:51.542Z,16.67
2023-05-23T07:51:24.238Z,14.70
2023-05-23T07:53:53.249Z,18.08
2023-05-23T07:56:24.489Z,19.58
2023-05-23T07:58:54.255Z,13.43
2023-05-23T08:01:22.698Z,11.43
2023-05-23T08:04:09.183Z,13.02
2023-05-23T08:07:00.796Z,14.40
2023-05-23T08:09:42.263Z,10.70
2023-05-23T08:12:13.748Z,11.75
2023-05-23T08:14:51.352Z,13.10
2023-05-23T08:19:54.661Z,14.05
2023-05-23T08:22:22.744Z,10.80
2023-05-23T08:24:51.396Z,10.93
2023-05-23T08:27:19.816Z,17.52
2023-05-23T08:29:53.733Z,15.43
2023-05-23T08:32:23.148Z,13.55
2023-05-23T08:34:51.431Z,13.90
2023-05-23T08:37:20.535Z,15.18
2023-05-23T08:39:48.902Z,10.45
2023-05-23T08:42:35.083Z,13.00
2023-05-23T08:45:06.381Z,9.73
2023-05-23T08:47:39.057Z,19.17
2023-05-23T08:52:39.119Z,10.73
2023-05-23T08:55:09.654Z,12.70
2023-05-23T08:57:39.289Z,12.10
2023-05-23T09:00:26.492Z,11.30
2023-05-23T09:02:55.047Z,11.73
2023-05-23T09:05:43.884Z,13.48
2023-05-23T09:08:13.300Z,14.07
2023-05-23T09:10:42.957Z,13.35
2023-05-23T09:13:12.875Z,9.85
2023-05-23T09:18:38.169Z,15.13
2023-05-23T09:21:08.788Z,15.48
2023-05-23T09:23:40.966Z,13.75
2023-05-23T09:26:11.927Z,11.48
2023-05-23T09:28:41.430Z,15.75
2023-05-23T09:31:10.475Z,17.48
2023-05-23T09:33:44.411Z,18.25
2023-05-23T09:36:12.849Z,17.08
2023-05-23T09:38:42.718Z,18.13
2023-05-23T09:41:12.340Z,14.75
2023-05-23T09:43:42.676Z,17.27
2023-05-23T09:46:12.204Z,14.13
2023-05-23T09:48:47.320Z,11.43
2023-05-23T09:51:16.203Z,14.45
2023-05-23T09:53:44.706Z,15.10
2023-05-23T09:56:13.224Z,13.95
2023-05-23T09:58:44.213Z,14.65
2023-05-23T10:01:14.659Z,9.93
2023-05-23T10:03:49.805Z,19.38
2023-05-23T10:06:24.903Z,12.98
2023-05-23T10:08:58.124Z,12.88
2023-05-23T10:11:56.052Z,14.88
2023-05-23T10:14:24.347Z,13.07
2023-05-23T10:17:02.591Z,11.20
2023-05-23T10:19:39.857Z,17.92
2023-05-23T10:22:11.361Z,12.23
2023-05-23T10:24:40.091Z,10.77
2023-05-23T10:27:09.238Z,10.57
2023-05-23T10:29:37.569Z,12.68
2023-05-23T10:32:07.931Z,15.80
2023-05-23T10:34:42.975Z,14.55
2023-05-23T10:37:19.142Z,15.23
2023-05-23T10:39:58.485Z,15.00
2023-05-23T10:42:36.813Z,13.43
2023-05-23T10:45:20.689Z,13.50
2023-05-23T10:47:50.124Z,13.75
2023-05-23T10:50:33.872Z,14.15
2023-05-23T10:53:03.710Z,16.42
2023-05-23T10:55:39.286Z,13.73
2023-05-23T10:58:20.449Z,19.80
2023-05-23T11:00:55.402Z,19.73
2023-05-23T11:03:35.515Z,17.92
2023-05-23T11:06:06.309Z,16.52
2023-05-23T11:08:48.342Z,17.20
2023-05-23T11:11:17.003Z,19.52
2023-05-23T11:14:00.571Z,16.95
2023-05-23T11:16:30.586Z,19.13
2023-05-23T11:19:25.411Z,17.42
2023-05-23T11:21:59.770Z,18.88
2023-05-23T11:24:50.419Z,20.83
2023-05-23T11:27:20.195Z,20.38
2023-05-23T11:30:01.518Z,23.92
2023-05-23T11:32:31.332Z,23.35
2023-05-23T11:35:03.552Z,27.08
2023-05-23T11:37:33.700Z,21.63
2023-05-23T11:40:22.743Z,27.27
2023-05-23T11:42:53.536Z,25.70
2023-05-23T11:45:23.822Z,27.90
2023-05-23T11:47:52.099Z,24.10
2023-05-23T11:50:21.302Z,25.13
2023-05-23T11:52:52.388Z,25.90
2023-05-23T11:55:21.413Z,25.75
2023-05-23T11:57:49.726Z,28.90
2023-05-23T12:00:18.923Z,25.02
2023-05-23T12:02:49.161Z,30.13
2023-05-23T12:05:17.602Z,25.20
2023-05-23T12:07:48.106Z,28.00
2023-05-23T12:10:20.519Z,28.77
2023-05-23T12:12:49.408Z,141.60
2023-05-23T12:15:17.687Z,27.58
2023-05-23T12:17:47.190Z,24.80
2023-05-23T12:20:22.427Z,29.10
2023-05-23T12:22:55.566Z,27.67
2023-05-23T12:25:25.782Z,28.35
2023-05-23T12:27:56.268Z,35.72
2023-05-23T12:30:24.406Z,33.00
2023-05-23T12:32:52.513Z,29.27
2023-05-23T12:35:21.234Z,27.42
2023-05-23T12:37:50.433Z,29.08
2023-05-23T12:40:19.966Z,31.52
2023-05-23T12:42:52.751Z,32.00
2023-05-23T12:45:21.263Z,28.83
2023-05-23T12:47:51.422Z,31.45
2023-05-23T12:50:21.316Z,35.28
2023-05-23T12:52:49.610Z,37.92
2023-05-23T12:55:17.827Z,29.65
2023-05-23T12:57:45.947Z,27.00
2023-05-23T13:00:16.564Z,21.95
2023-05-23T13:02:44.799Z,27.08
2023-05-23T13:05:12.999Z,24.38
2023-05-23T13:07:41.181Z,24.88
2023-05-23T13:10:10.624Z,22.60
2023-05-23T13:12:38.791Z,23.73
2023-05-23T13:15:08.375Z,25.88
2023-05-23T13:17:37.923Z,27.35
2023-05-23T13:20:07.503Z,23.30
2023-05-23T13:22:35.827Z,21.52
2023-05-23T13:25:03.964Z,26.08
2023-05-23T13:27:32.203Z,26.50
2023-05-23T13:30:00.492Z,34.38
2023-05-23T13:32:28.984Z,26.30
2023-05-23T13:34:58.517Z,27.60
2023-05-23T13:37:26.898Z,26.17
2023-05-23T13:39:55.047Z,29.33
2023-05-23T13:42:23.231Z,36.45
2023-05-23T13:44:51.376Z,32.90
2023-05-23T13:47:19.560Z,29.85
2023-05-23T13:49:47.730Z,31.98
2023-05-23T13:52:17.468Z,28.13
2023-05-23T13:54:46.299Z,31.80
2023-05-23T13:57:15.925Z,30.27
2023-05-23T13:59:44.336Z,30.48
2023-05-23T14:02:12.648Z,29.80
2023-05-23T14:04:41.109Z,31.30
2023-05-23T14:07:09.718Z,30.80
2023-05-23T14:09:39.186Z,30.85
2023-05-23T14:12:07.831Z,29.67
2023-05-23T14:14:35.913Z,30.85
2023-05-23T14:17:04.532Z,27.45
2023-05-23T14:19:32.777Z,33.00
2023-05-23T14:22:01.031Z,31.52
2023-05-23T14:24:29.202Z,30.70
2023-05-23T14:26:58.709Z,32.22
2023-05-23T14:29:26.802Z,33.78
2023-05-23T14:31:54.986Z,32.85
2023-05-23T14:34:23.179Z,34.15
2023-05-23T14:36:51.352Z,35.45
2023-05-23T14:39:19.823Z,38.33
2023-05-23T14:41:48.009Z,38.25
2023-05-23T14:44:17.485Z,38.58
2023-05-23T14:46:48.908Z,38.83
2023-05-23T14:49:18.299Z,34.33
2023-05-23T14:51:50.895Z,38.92
2023-05-23T14:54:20.137Z,38.20
2023-05-23T14:56:49.893Z,33.97
2023-05-23T14:59:21.783Z,30.98
2023-05-23T15:01:49.995Z,34.17
2023-05-23T15:04:18.619Z,35.35
2023-05-23T15:06:47.299Z,32.53
2023-05-23T15:09:15.618Z,29.08
2023-05-23T15:11:45.190Z,25.98
2023-05-23T15:14:13.417Z,19.65
2023-05-23T15:16:48.746Z,21.10
2023-05-23T15:19:17.387Z,19.67
2023-05-23T15:21:50.915Z,17.00
2023-05-23T15:24:19.909Z,21.50
2023-05-23T15:26:48.817Z,18.98
2023-05-23T15:29:18.178Z,18.35
2023-05-23T15:31:47.671Z,18.15
2023-05-23T15:34:15.998Z,17.00
2023-05-23T15:36:44.204Z,17.20
2023-05-23T15:39:12.506Z,18.83
2023-05-23T15:41:41.279Z,14.43
2023-05-23T15:44:09.571Z,16.17
2023-05-23T15:46:38.031Z,18.05
2023-05-23T15:49:17.582Z,16.08
2023-05-23T15:51:54.203Z,15.13
2023-05-23T15:54:22.420Z,16.65
2023-05-23T15:56:51.091Z,18.42
2023-05-23T15:59:19.270Z,14.75
2023-05-23T16:01:47.550Z,17.60
2023-05-23T16:04:17.281Z,14.25
2023-05-23T16:06:45.611Z,16.23
2023-05-23T16:09:13.992Z,18.35
2023-05-23T16:11:42.167Z,18.27
2023-05-23T16:14:10.331Z,18.73
2023-05-23T16:16:38.502Z,21.67
2023-05-23T16:19:06.853Z,18.65
2023-05-23T16:21:36.800Z,19.45
2023-05-23T16:24:06.196Z,17.98
2023-05-23T16:26:34.330Z,14.40
2023-05-23T16:29:02.491Z,16.45
2023-05-23T16:31:31.468Z,20.42
2023-05-23T16:33:59.648Z,21.45
2023-05-23T16:36:29.040Z,19.10
2023-05-23T16:38:58.508Z,17.60
2023-05-23T16:41:26.729Z,21.27
2023-05-23T16:43:54.794Z,23.00
2023-05-23T16:46:23.269Z,18.90
2023-05-23T16:48:51.386Z,19.20
2023-05-23T16:51:19.611Z,18.35
2023-05-23T16:53:47.754Z,15.70
2023-05-23T16:56:17.303Z,18.48
2023-05-23T16:58:47.426Z,14.60
2023-05-23T17:01:16.715Z,16.63
2023-05-23T17:03:45.016Z,11.60
2023-05-23T17:06:13.335Z,12.50
2023-05-23T17:08:41.806Z,14.80
2023-05-23T17:11:09.951Z,15.68
2023-05-23T17:13:39.636Z,12.88
2023-05-23T17:16:08.003Z,13.88
2023-05-23T17:18:36.585Z,15.73
2023-05-23T17:21:04.788Z,16.33
2023-05-23T17:23:32.956Z,13.45
2023-05-23T17:26:01.059Z,12.13
2023-05-23T17:28:29.671Z,15.52
2023-05-23T17:30:59.295Z,12.73
2023-05-23T17:33:27.601Z,12.38
2023-05-23T17:35:55.874Z,12.52
2023-05-23T17:38:23.991Z,10.73
2023-05-23T17:40:52.814Z,10.95
2023-05-23T17:43:21.197Z,16.80
2023-05-23T17:45:49.408Z,9.73
2023-05-23T17:48:18.916Z,15.10
2023-05-23T17:50:47.029Z,7.47
2023-05-23T17:53:16.247Z,10.05
2023-05-23T17:55:45.109Z,10.43
2023-05-23T17:58:13.557Z,10.20
2023-05-23T18:00:41.954Z,11.65
2023-05-23T18:03:14.248Z,13.63
2023-05-23T18:05:43.691Z,13.30
2023-05-23T18:08:11.807Z,15.70
2023-05-23T18:10:40.048Z,16.00
2023-05-23T18:13:08.287Z,16.05
2023-05-23T18:15:36.405Z,15.48
2023-05-23T18:18:06.917Z,20.83
2023-05-23T18:20:35.202Z,20.48
2023-05-23T18:23:04.671Z,22.33
2023-05-23T18:25:32.837Z,20.75
2023-05-23T18:28:02.359Z,15.25
2023-05-23T18:30:33.336Z,18.77
2023-05-23T18:33:01.690Z,15.88
2023-05-23T18:35:30.022Z,20.67
2023-05-23T18:37:58.157Z,16.73
2023-05-23T18:40:27.734Z,18.70
2023-05-23T18:42:55.892Z,20.60
2023-05-23T18:45:24.103Z,20.98
2023-05-23T18:47:52.217Z,21.90
2023-05-23T18:50:20.427Z,22.23
2023-05-23T18:52:48.684Z,21.23
2023-05-23T18:55:17.445Z,21.17
2023-05-23T18:57:47.016Z,19.15
2023-05-23T19:00:15.992Z,22.02
2023-05-23T19:02:45.657Z,17.38
2023-05-23T19:05:14.198Z,17.98
2023-05-23T19:07:44.644Z,21.42
2023-05-23T19:10:13.120Z,14.35
2023-05-23T19:12:41.240Z,22.00
2023-05-23T19:15:11.998Z,21.85
2023-05-23T19:17:42.748Z,15.25
2023-05-23T19:20:18.194Z,19.15
2023-05-23T19:22:51.439Z,21.27
2023-05-23T19:25:21.492Z,18.25
2023-05-23T19:27:52.480Z,23.88
2023-05-23T19:30:22.438Z,16.63
2023-05-23T19:32:50.753Z,20.92
2023-05-23T19:35:19.193Z,17.00
2023-05-23T19:37:49.141Z,19.35
2023-05-23T19:40:17.325Z,18.58
2023-05-23T19:42:45.502Z,21.80
2023-05-23T19:45:14.451Z,20.73
2023-05-23T19:47:44.028Z,17.17
2023-05-23T19:50:12.981Z,21.90
2023-05-23T19:52:41.906Z,19.52
2023-05-23T19:55:11.217Z,22.50
2023-05-23T19:57:39.309Z,21.98
2023-05-23T20:00:09.824Z,17.67
2023-05-23T20:02:38.521Z,17.13
2023-05-23T20:05:09.347Z,24.27
2023-05-23T20:07:37.597Z,21.15
2023-05-23T20:10:09.121Z,19.88
2023-05-23T20:12:37.502Z,22.98
2023-05-23T20:15:06.278Z,19.17
2023-05-23T20:17:34.398Z,18.80
2023-05-23T20:20:03.796Z,26.27
2023-05-23T20:22:33.169Z,21.50
2023-05-23T20:25:01.601Z,21.85
2023-05-23T20:27:29.757Z,20.65
2023-05-23T20:30:00.955Z,21.42
2023-05-23T20:32:29.101Z,18.63
2023-05-23T20:34:57.245Z,24.13
2023-05-23T20:37:28.184Z,23.38
2023-05-23T20:39:58.006Z,23.60
2023-05-23T20:42:26.637Z,21.60
2023-05-23T20:44:56.898Z,19.27
2023-05-23T20:47:25.651Z,22.98
2023-05-23T20:49:53.834Z,21.70
2023-05-23T20:52:22.933Z,23.10
2023-05-23T20:54:52.358Z,20.85
2023-05-23T20:57:21.893Z,26.13
2023-05-23T20:59:50.453Z,20.58
2023-05-23T21:02:18.611Z,24.85
2023-05-23T21:04:46.823Z,20.42
2023-05-23T21:07:15.032Z,22.27
2023-05-23T21:09:43.204Z,17.52
2023-05-23T21:12:11.348Z,24.15
2023-05-23T21:14:40.878Z,25.80
2023-05-23T21:17:09.446Z,20.30
2023-05-23T21:19:37.758Z,21.23
2023-05-23T21:22:08.310Z,22.38
2023-05-23T21:24:36.470Z,25.52
2023-05-23T21:27:05.347Z,21.17
2023-05-23T21:29:33.502Z,32.05
2023-05-23T21:32:03.124Z,36.70
2023-05-23T21:34:33.515Z,26.27
2023-05-23T21:37:01.689Z,24.52
2023-05-23T21:39:42.918Z,25.27
2023-05-23T21:42:15.580Z,29.27
2023-05-23T21:44:46.145Z,20.73
2023-05-23T21:47:15.696Z,20.92
2023-05-23T21:49:44.026Z,25.60
2023-05-23T21:52:12.131Z,22.10
2023-05-23T21:54:40.243Z,24.13
2023-05-23T21:57:08.322Z,16.73
2023-05-23T21:59:36.785Z,23.40
2023-05-23T22:02:05.362Z,21.85
2023-05-23T22:04:35.716Z,23.15
2023-05-23T22:07:03.940Z,25.52
2023-05-23T22:09:32.036Z,24.90
2023-05-23T22:12:00.620Z,24.85
2023-05-23T22:14:28.695Z,21.55
2023-05-23T22:16:58.987Z,26.25
2023-05-23T22:19:29.280Z,31.42
2023-05-23T22:21:58.797Z,22.70
2023-05-23T22:24:27.058Z,28.25
2023-05-23T22:26:55.374Z,24.20
2023-05-23T22:29:25.927Z,31.30
2023-05-23T22:31:54.071Z,23.95
2023-05-23T22:34:24.688Z,31.67
2023-05-23T22:36:53.158Z,24.50
2023-05-23T22:39:22.721Z,21.92
2023-05-23T22:41:50.991Z,24.38
2023-05-23T22:44:19.034Z,25.38
2023-05-23T22:46:47.241Z,24.33
2023-05-23T22:49:15.394Z,29.17
2023-05-23T22:51:44.688Z,33.30
2023-05-23T22:54:12.833Z,22.48
2023-05-23T22:56:42.537Z,28.83
2023-05-23T22:59:10.701Z,29.58
2023-05-23T23:01:41.085Z,24.13
2023-05-23T23:04:09.249Z,31.85
2023-05-23T23:06:37.350Z,26.65
2023-05-23T23:09:05.576Z,24.08
2023-05-23T23:11:33.700Z,17.90
2023-05-23T23:14:03.441Z,21.73
2023-05-23T23:16:31.909Z,28.40
2023-05-23T23:19:00.099Z,31.90
2023-05-23T23:21:28.270Z,31.48
2023-05-23T23:23:56.592Z,16.33
2023-05-23T23:26:24.676Z,27.45
2023-05-23T23:28:52.881Z,20.33
2023-05-23T23:31:24.820Z,30.38
2023-05-23T23:33:52.933Z,27.30
2023-05-23T23:36:21.137Z,21.63
2023-05-23T23:38:49.300Z,24.00
2023-05-23T23:41:17.499Z,27.70
2023-05-23T23:43:46.070Z,22.17
2023-05-23T23:46:14.252Z,25.42
2023-05-23T23:48:43.732Z,24.45
2023-05-23T23:51:12.856Z,17.30
2023-05-23T23:53:41.294Z,22.80
2023-05-23T23:56:11.910Z,16.65
2023-05-23T23:58:40.053Z,28.50
